Terminal Aerodrome Forecast
Issued by NWS

Home | Current Version | Previous Version | Text Only | Print | Product List | Glossary On
Versions: 1 2 3 4 5 6 7 8 9 10 11 12 13 14 15 16 17 18 19 20 21 22 23 24 25 26
000
FTUS45 KTFX 201744
TAFCTB
TAF
KCTB 201744Z 2018/2118 32011KT P6SM FEW040 FEW250
     FM202300 35011KT P6SM SCT050 BKN120 PROB30 2103/2104 5SM -RA
      BKN040
     FM210600 32010KT P6SM SCT027 BKN050 PROB30 2106/2109 5SM -RA
      BKN027
     FM211200 VRB05KT 6SM BR FEW035 SCT080=

USA.gov is the U.S. government's official web portal to all federal, state and local government web resources and services.